sensor_id;sensor_type;location;lat;lon;timestamp;temperature;humidity
28761;DHT22;15917;50.014;8.352;2023-02-28T00:01:01;2.20;99.90
28761;DHT22;15917;50.014;8.352;2023-02-28T00:03:27;2.20;99.90
28761;DHT22;15917;50.014;8.352;2023-02-28T00:05:52;2.20;99.90
28761;DHT22;15917;50.014;8.352;2023-02-28T00:08:18;2.20;99.90
28761;DHT22;15917;50.014;8.352;2023-02-28T00:10:43;2.30;99.90
28761;DHT22;15917;50.014;8.352;2023-02-28T00:13:09;2.30;99.90
28761;DHT22;15917;50.014;8.352;2023-02-28T00:15:35;2.30;99.90
28761;DHT22;15917;50.014;8.352;2023-02-28T00:18:01;2.20;99.90
28761;DHT22;15917;50.014;8.352;2023-02-28T00:20:27;2.30;99.90
28761;DHT22;15917;50.014;8.352;2023-02-28T00:22:53;2.20;99.90
28761;DHT22;15917;50.014;8.352;2023-02-28T00:25:21;2.30;99.90
28761;DHT22;15917;50.014;8.352;2023-02-28T00:27:47;2.20;99.90
28761;DHT22;15917;50.014;8.352;2023-02-28T00:30:20;2.30;99.90
28761;DHT22;15917;50.014;8.352;2023-02-28T00:32:46;2.30;99.90
28761;DHT22;15917;50.014;8.352;2023-02-28T00:35:12;2.30;99.90
28761;DHT22;15917;50.014;8.352;2023-02-28T00:37:40;2.30;99.90
28761;DHT22;15917;50.014;8.352;2023-02-28T00:40:07;2.30;99.90
28761;DHT22;15917;50.014;8.352;2023-02-28T00:42:36;2.30;99.90
28761;DHT22;15917;50.014;8.352;2023-02-28T00:45:03;2.30;99.90
28761;DHT22;15917;50.014;8.352;2023-02-28T00:47:33;2.20;99.90
28761;DHT22;15917;50.014;8.352;2023-02-28T00:49:59;2.30;99.90
28761;DHT22;15917;50.014;8.352;2023-02-28T00:52:24;2.20;99.90
28761;DHT22;15917;50.014;8.352;2023-02-28T00:54:50;2.30;99.90
28761;DHT22;15917;50.014;8.352;2023-02-28T00:57:16;2.30;99.90
28761;DHT22;15917;50.014;8.352;2023-02-28T00:59:41;2.20;99.90
28761;DHT22;15917;50.014;8.352;2023-02-28T01:02:07;2.20;99.90
28761;DHT22;15917;50.014;8.352;2023-02-28T01:04:32;2.20;99.90
28761;DHT22;15917;50.014;8.352;2023-02-28T01:07:00;2.20;99.90
28761;DHT22;15917;50.014;8.352;2023-02-28T01:09:27;2.20;99.90
28761;DHT22;15917;50.014;8.352;2023-02-28T01:11:53;2.10;99.90
28761;DHT22;15917;50.014;8.352;2023-02-28T01:14:18;2.10;99.90
28761;DHT22;15917;50.014;8.352;2023-02-28T01:16:45;2.10;99.90
28761;DHT22;15917;50.014;8.352;2023-02-28T01:19:10;2.00;99.90
28761;DHT22;15917;50.014;8.352;2023-02-28T01:21:37;2.00;99.90
28761;DHT22;15917;50.014;8.352;2023-02-28T01:24:04;2.00;99.90
28761;DHT22;15917;50.014;8.352;2023-02-28T01:26:30;2.00;99.90
28761;DHT22;15917;50.014;8.352;2023-02-28T01:28:56;1.90;99.90
28761;DHT22;15917;50.014;8.352;2023-02-28T01:31:22;1.80;99.90
28761;DHT22;15917;50.014;8.352;2023-02-28T01:33:48;1.80;99.90
28761;DHT22;15917;50.014;8.352;2023-02-28T01:36:24;1.80;99.90
28761;DHT22;15917;50.014;8.352;2023-02-28T01:38:51;1.80;99.90
28761;DHT22;15917;50.014;8.352;2023-02-28T01:41:21;1.70;99.90
28761;DHT22;15917;50.014;8.352;2023-02-28T01:46:13;1.70;99.90
28761;DHT22;15917;50.014;8.352;2023-02-28T01:49:08;1.60;99.90
28761;DHT22;15917;50.014;8.352;2023-02-28T01:51:39;1.60;99.90
28761;DHT22;15917;50.014;8.352;2023-02-28T01:54:14;1.60;99.90
28761;DHT22;15917;50.014;8.352;2023-02-28T01:56:49;1.50;99.90
28761;DHT22;15917;50.014;8.352;2023-02-28T02:02:15;1.40;99.90
28761;DHT22;15917;50.014;8.352;2023-02-28T02:05:02;1.50;99.90
28761;DHT22;15917;50.014;8.352;2023-02-28T02:07:32;1.50;99.90
28761;DHT22;15917;50.014;8.352;2023-02-28T02:15:46;1.40;99.90
28761;DHT22;15917;50.014;8.352;2023-02-28T02:24:02;1.40;99.90
28761;DHT22;15917;50.014;8.352;2023-02-28T02:32:36;1.30;99.90
28761;DHT22;15917;50.014;8.352;2023-02-28T02:35:30;1.30;99.90
28761;DHT22;15917;50.014;8.352;2023-02-28T02:38:07;1.30;99.90
28761;DHT22;15917;50.014;8.352;2023-02-28T02:40:41;1.30;99.90
28761;DHT22;15917;50.014;8.352;2023-02-28T02:43:29;1.30;99.90
28761;DHT22;15917;50.014;8.352;2023-02-28T02:46:32;1.20;99.90
28761;DHT22;15917;50.014;8.352;2023-02-28T02:49:00;1.20;99.90
28761;DHT22;15917;50.014;8.352;2023-02-28T02:51:30;1.20;99.90
28761;DHT22;15917;50.014;8.352;2023-02-28T02:57:05;1.20;99.90
28761;DHT22;15917;50.014;8.352;2023-02-28T02:59:32;1.10;99.90
28761;DHT22;15917;50.014;8.352;2023-02-28T03:02:00;1.10;99.90
28761;DHT22;15917;50.014;8.352;2023-02-28T03:04:31;1.10;99.90
28761;DHT22;15917;50.014;8.352;2023-02-28T03:06:58;1.10;99.90
28761;DHT22;15917;50.014;8.352;2023-02-28T03:09:25;1.10;99.90
28761;DHT22;15917;50.014;8.352;2023-02-28T03:11:53;1.00;99.90
28761;DHT22;15917;50.014;8.352;2023-02-28T03:25:34;0.90;99.90
28761;DHT22;15917;50.014;8.352;2023-02-28T03:30:44;0.90;99.90
28761;DHT22;15917;50.014;8.352;2023-02-28T03:33:21;0.90;99.90
28761;DHT22;15917;50.014;8.352;2023-02-28T03:35:55;0.90;99.90
28761;DHT22;15917;50.014;8.352;2023-02-28T03:41:05;0.80;99.90
28761;DHT22;15917;50.014;8.352;2023-02-28T03:43:36;0.80;99.90
28761;DHT22;15917;50.014;8.352;2023-02-28T03:46:08;0.80;99.90
28761;DHT22;15917;50.014;8.352;2023-02-28T03:48:49;0.80;99.90
28761;DHT22;15917;50.014;8.352;2023-02-28T03:51:19;0.80;99.90
28761;DHT22;15917;50.014;8.352;2023-02-28T03:53:50;0.80;99.90
28761;DHT22;15917;50.014;8.352;2023-02-28T03:56:24;0.80;99.90
28761;DHT22;15917;50.014;8.352;2023-02-28T03:59:14;0.70;99.90
28761;DHT22;15917;50.014;8.352;2023-02-28T04:01:45;0.80;99.90
28761;DHT22;15917;50.014;8.352;2023-02-28T04:04:12;0.70;99.90
28761;DHT22;15917;50.014;8.352;2023-02-28T04:06:39;0.70;99.90
28761;DHT22;15917;50.014;8.352;2023-02-28T04:09:05;0.70;99.90
28761;DHT22;15917;50.014;8.352;2023-02-28T04:11:35;0.70;99.90
28761;DHT22;15917;50.014;8.352;2023-02-28T04:14:06;0.70;99.90
28761;DHT22;15917;50.014;8.352;2023-02-28T04:16:34;0.70;99.90
28761;DHT22;15917;50.014;8.352;2023-02-28T04:19:00;0.70;99.90
28761;DHT22;15917;50.014;8.352;2023-02-28T04:21:47;0.70;99.90
28761;DHT22;15917;50.014;8.352;2023-02-28T04:24:16;0.70;99.90
28761;DHT22;15917;50.014;8.352;2023-02-28T04:26:45;0.70;99.90
28761;DHT22;15917;50.014;8.352;2023-02-28T04:29:13;0.70;99.90
28761;DHT22;15917;50.014;8.352;2023-02-28T04:31:38;0.70;99.90
28761;DHT22;15917;50.014;8.352;2023-02-28T04:34:05;0.80;99.90
28761;DHT22;15917;50.014;8.352;2023-02-28T04:36:30;0.70;99.90
28761;DHT22;15917;50.014;8.352;2023-02-28T04:38:56;0.80;99.90
28761;DHT22;15917;50.014;8.352;2023-02-28T04:41:22;0.80;99.90
28761;DHT22;15917;50.014;8.352;2023-02-28T04:43:48;0.70;99.90
28761;DHT22;15917;50.014;8.352;2023-02-28T04:46:14;0.70;99.90
28761;DHT22;15917;50.014;8.352;2023-02-28T04:48:40;0.70;99.90
28761;DHT22;15917;50.014;8.352;2023-02-28T04:51:08;0.70;99.90
28761;DHT22;15917;50.014;8.352;2023-02-28T04:53:36;0.70;99.90
28761;DHT22;15917;50.014;8.352;2023-02-28T04:56:03;0.70;99.90
28761;DHT22;15917;50.014;8.352;2023-02-28T04:58:29;0.70;99.90
28761;DHT22;15917;50.014;8.352;2023-02-28T05:01:04;0.60;99.90
28761;DHT22;15917;50.014;8.352;2023-02-28T05:03:38;0.60;99.90
28761;DHT22;15917;50.014;8.352;2023-02-28T05:06:06;0.60;99.90
28761;DHT22;15917;50.014;8.352;2023-02-28T05:08:32;0.60;99.90
28761;DHT22;15917;50.014;8.352;2023-02-28T05:10:58;0.70;99.90
28761;DHT22;15917;50.014;8.352;2023-02-28T05:13:26;0.70;99.90
28761;DHT22;15917;50.014;8.352;2023-02-28T05:15:52;0.60;99.90
28761;DHT22;15917;50.014;8.352;2023-02-28T05:18:17;0.60;99.90
28761;DHT22;15917;50.014;8.352;2023-02-28T05:20:43;0.60;99.90
28761;DHT22;15917;50.014;8.352;2023-02-28T05:23:11;0.60;99.90
28761;DHT22;15917;50.014;8.352;2023-02-28T05:25:38;0.60;99.90
28761;DHT22;15917;50.014;8.352;2023-02-28T05:28:04;0.60;99.90
28761;DHT22;15917;50.014;8.352;2023-02-28T05:30:30;0.60;99.90
28761;DHT22;15917;50.014;8.352;2023-02-28T05:32:57;0.60;99.90
28761;DHT22;15917;50.014;8.352;2023-02-28T05:35:24;0.60;99.90
28761;DHT22;15917;50.014;8.352;2023-02-28T05:37:50;0.60;99.90
28761;DHT22;15917;50.014;8.352;2023-02-28T05:40:16;0.70;99.90
28761;DHT22;15917;50.014;8.352;2023-02-28T05:42:42;0.60;99.90
28761;DHT22;15917;50.014;8.352;2023-02-28T05:45:08;0.70;99.90
28761;DHT22;15917;50.014;8.352;2023-02-28T05:47:34;0.70;99.90
28761;DHT22;15917;50.014;8.352;2023-02-28T05:50:00;0.70;99.90
28761;DHT22;15917;50.014;8.352;2023-02-28T05:52:27;0.70;99.90
28761;DHT22;15917;50.014;8.352;2023-02-28T05:54:53;0.70;99.90
28761;DHT22;15917;50.014;8.352;2023-02-28T05:57:18;0.70;99.90
28761;DHT22;15917;50.014;8.352;2023-02-28T05:59:44;0.70;99.90
28761;DHT22;15917;50.014;8.352;2023-02-28T06:02:14;0.70;99.90
28761;DHT22;15917;50.014;8.352;2023-02-28T06:04:40;0.70;99.90
28761;DHT22;15917;50.014;8.352;2023-02-28T06:07:07;0.60;99.90
28761;DHT22;15917;50.014;8.352;2023-02-28T06:09:32;0.60;99.90
28761;DHT22;15917;50.014;8.352;2023-02-28T06:11:59;0.60;99.90
28761;DHT22;15917;50.014;8.352;2023-02-28T06:14:25;0.60;99.90
28761;DHT22;15917;50.014;8.352;2023-02-28T06:16:52;0.60;99.90
28761;DHT22;15917;50.014;8.352;2023-02-28T06:19:17;0.50;99.90
28761;DHT22;15917;50.014;8.352;2023-02-28T06:21:43;0.50;99.90
28761;DHT22;15917;50.014;8.352;2023-02-28T06:24:09;0.60;99.90
28761;DHT22;15917;50.014;8.352;2023-02-28T06:26:36;0.60;99.90
28761;DHT22;15917;50.014;8.352;2023-02-28T06:29:02;0.50;99.90
28761;DHT22;15917;50.014;8.352;2023-02-28T06:31:28;0.50;99.90
28761;DHT22;15917;50.014;8.352;2023-02-28T06:33:55;0.50;99.90
28761;DHT22;15917;50.014;8.352;2023-02-28T06:36:21;0.50;99.90
28761;DHT22;15917;50.014;8.352;2023-02-28T06:38:46;0.60;99.90
28761;DHT22;15917;50.014;8.352;2023-02-28T06:41:17;0.70;99.90
28761;DHT22;15917;50.014;8.352;2023-02-28T06:43:43;0.80;99.90
28761;DHT22;15917;50.014;8.352;2023-02-28T06:46:12;0.90;99.90
28761;DHT22;15917;50.014;8.352;2023-02-28T06:48:39;0.90;99.90
28761;DHT22;15917;50.014;8.352;2023-02-28T06:51:12;0.90;99.90
28761;DHT22;15917;50.014;8.352;2023-02-28T06:53:38;0.90;99.90
28761;DHT22;15917;50.014;8.352;2023-02-28T06:56:06;0.90;99.90
28761;DHT22;15917;50.014;8.352;2023-02-28T06:58:32;1.00;99.90
28761;DHT22;15917;50.014;8.352;2023-02-28T07:00:57;1.00;99.90
28761;DHT22;15917;50.014;8.352;2023-02-28T07:03:23;1.00;99.90
28761;DHT22;15917;50.014;8.352;2023-02-28T07:05:49;1.00;99.90
28761;DHT22;15917;50.014;8.352;2023-02-28T07:08:15;1.10;99.90
28761;DHT22;15917;50.014;8.352;2023-02-28T07:10:40;1.20;99.90
28761;DHT22;15917;50.014;8.352;2023-02-28T07:13:07;1.20;99.90
28761;DHT22;15917;50.014;8.352;2023-02-28T07:15:34;1.30;99.90
28761;DHT22;15917;50.014;8.352;2023-02-28T07:18:00;1.40;99.90
28761;DHT22;15917;50.014;8.352;2023-02-28T07:20:25;1.40;99.90
28761;DHT22;15917;50.014;8.352;2023-02-28T07:22:51;1.40;99.90
28761;DHT22;15917;50.014;8.352;2023-02-28T07:25:26;1.40;99.90
28761;DHT22;15917;50.014;8.352;2023-02-28T07:27:53;1.50;99.90
28761;DHT22;15917;50.014;8.352;2023-02-28T07:30:19;1.60;99.90
28761;DHT22;15917;50.014;8.352;2023-02-28T07:32:45;1.70;99.90
28761;DHT22;15917;50.014;8.352;2023-02-28T07:35:11;1.80;99.90
28761;DHT22;15917;50.014;8.352;2023-02-28T07:37:37;2.00;99.90
28761;DHT22;15917;50.014;8.352;2023-02-28T07:40:08;2.10;99.90
28761;DHT22;15917;50.014;8.352;2023-02-28T07:42:35;2.20;99.90
28761;DHT22;15917;50.014;8.352;2023-02-28T07:45:04;2.30;99.90
28761;DHT22;15917;50.014;8.352;2023-02-28T07:47:30;2.50;99.90
28761;DHT22;15917;50.014;8.352;2023-02-28T07:49:57;2.70;99.90
28761;DHT22;15917;50.014;8.352;2023-02-28T07:52:23;2.80;99.90
28761;DHT22;15917;50.014;8.352;2023-02-28T07:54:52;3.00;99.90
28761;DHT22;15917;50.014;8.352;2023-02-28T07:57:18;3.10;99.90
28761;DHT22;15917;50.014;8.352;2023-02-28T07:59:43;3.10;99.90
28761;DHT22;15917;50.014;8.352;2023-02-28T08:02:14;3.10;99.90
28761;DHT22;15917;50.014;8.352;2023-02-28T08:04:40;3.30;99.90
28761;DHT22;15917;50.014;8.352;2023-02-28T08:07:05;3.40;99.90
28761;DHT22;15917;50.014;8.352;2023-02-28T08:09:31;3.50;99.90
28761;DHT22;15917;50.014;8.352;2023-02-28T08:11:57;3.70;99.90
28761;DHT22;15917;50.014;8.352;2023-02-28T08:14:22;3.90;99.90
28761;DHT22;15917;50.014;8.352;2023-02-28T08:16:48;4.00;99.90
28761;DHT22;15917;50.014;8.352;2023-02-28T08:19:13;4.30;99.90
28761;DHT22;15917;50.014;8.352;2023-02-28T08:21:39;4.60;99.90
28761;DHT22;15917;50.014;8.352;2023-02-28T08:24:05;4.80;99.90
28761;DHT22;15917;50.014;8.352;2023-02-28T08:26:31;5.00;99.90
28761;DHT22;15917;50.014;8.352;2023-02-28T08:28:57;5.20;99.90
28761;DHT22;15917;50.014;8.352;2023-02-28T08:31:22;5.30;99.90
28761;DHT22;15917;50.014;8.352;2023-02-28T08:33:48;5.30;99.90
28761;DHT22;15917;50.014;8.352;2023-02-28T08:36:16;5.30;99.90
28761;DHT22;15917;50.014;8.352;2023-02-28T08:38:42;5.20;99.90
28761;DHT22;15917;50.014;8.352;2023-02-28T08:41:10;5.10;99.90
28761;DHT22;15917;50.014;8.352;2023-02-28T08:43:36;5.20;99.90
28761;DHT22;15917;50.014;8.352;2023-02-28T08:46:02;5.30;99.90
28761;DHT22;15917;50.014;8.352;2023-02-28T08:48:30;5.20;99.90
28761;DHT22;15917;50.014;8.352;2023-02-28T08:51:04;5.40;99.90
28761;DHT22;15917;50.014;8.352;2023-02-28T08:53:31;5.50;99.90
28761;DHT22;15917;50.014;8.352;2023-02-28T08:55:58;5.50;99.90
28761;DHT22;15917;50.014;8.352;2023-02-28T08:58:25;5.70;99.90
28761;DHT22;15917;50.014;8.352;2023-02-28T09:00:51;5.90;99.90
28761;DHT22;15917;50.014;8.352;2023-02-28T09:03:17;5.90;99.90
28761;DHT22;15917;50.014;8.352;2023-02-28T09:05:55;6.10;99.90
28761;DHT22;15917;50.014;8.352;2023-02-28T09:08:23;6.20;99.90
28761;DHT22;15917;50.014;8.352;2023-02-28T09:10:49;6.40;99.90
28761;DHT22;15917;50.014;8.352;2023-02-28T09:13:15;6.50;99.90
28761;DHT22;15917;50.014;8.352;2023-02-28T09:15:40;6.70;99.90
28761;DHT22;15917;50.014;8.352;2023-02-28T09:18:06;6.90;99.90
28761;DHT22;15917;50.014;8.352;2023-02-28T09:20:32;6.80;99.90
28761;DHT22;15917;50.014;8.352;2023-02-28T09:22:57;6.70;99.90
28761;DHT22;15917;50.014;8.352;2023-02-28T09:25:23;6.70;99.90
28761;DHT22;15917;50.014;8.352;2023-02-28T09:27:48;6.60;99.90
28761;DHT22;15917;50.014;8.352;2023-02-28T09:30:14;6.70;99.80
28761;DHT22;15917;50.014;8.352;2023-02-28T09:32:40;6.80;99.80
28761;DHT22;15917;50.014;8.352;2023-02-28T09:35:06;6.90;99.70
28761;DHT22;15917;50.014;8.352;2023-02-28T09:37:32;7.10;99.00
28761;DHT22;15917;50.014;8.352;2023-02-28T09:39:57;7.10;98.20
28761;DHT22;15917;50.014;8.352;2023-02-28T09:42:32;7.10;98.40
28761;DHT22;15917;50.014;8.352;2023-02-28T09:45:00;7.00;98.00
28761;DHT22;15917;50.014;8.352;2023-02-28T09:52:39;7.00;97.40
28761;DHT22;15917;50.014;8.352;2023-02-28T09:55:42;7.10;97.00
28761;DHT22;15917;50.014;8.352;2023-02-28T09:58:20;7.20;96.60
28761;DHT22;15917;50.014;8.352;2023-02-28T10:03:39;7.90;96.80
28761;DHT22;15917;50.014;8.352;2023-02-28T10:06:17;8.20;95.20
28761;DHT22;15917;50.014;8.352;2023-02-28T10:09:35;8.50;94.20
28761;DHT22;15917;50.014;8.352;2023-02-28T10:11:39;8.70;93.80
28761;DHT22;15917;50.014;8.352;2023-02-28T10:14:27;9.10;92.70
28761;DHT22;15917;50.014;8.352;2023-02-28T10:16:59;8.60;91.90
28761;DHT22;15917;50.014;8.352;2023-02-28T10:19:34;8.60;92.10
28761;DHT22;15917;50.014;8.352;2023-02-28T10:22:11;8.40;92.00
28761;DHT22;15917;50.014;8.352;2023-02-28T10:24:45;8.60;92.30
28761;DHT22;15917;50.014;8.352;2023-02-28T10:27:16;8.20;91.80
28761;DHT22;15917;50.014;8.352;2023-02-28T10:29:56;8.10;92.50
28761;DHT22;15917;50.014;8.352;2023-02-28T10:32:27;8.10;92.40
28761;DHT22;15917;50.014;8.352;2023-02-28T10:35:17;7.70;92.80
28761;DHT22;15917;50.014;8.352;2023-02-28T10:37:49;8.10;92.60
28761;DHT22;15917;50.014;8.352;2023-02-28T10:40:33;8.40;92.10
28761;DHT22;15917;50.014;8.352;2023-02-28T10:43:04;8.70;91.70
28761;DHT22;15917;50.014;8.352;2023-02-28T10:45:35;9.00;91.50
28761;DHT22;15917;50.014;8.352;2023-02-28T10:58:42;10.00;90.20
28761;DHT22;15917;50.014;8.352;2023-02-28T11:01:18;9.90;88.30
28761;DHT22;15917;50.014;8.352;2023-02-28T11:03:44;10.20;88.20
28761;DHT22;15917;50.014;8.352;2023-02-28T11:06:16;10.30;88.40
28761;DHT22;15917;50.014;8.352;2023-02-28T11:08:48;10.50;88.00
28761;DHT22;15917;50.014;8.352;2023-02-28T11:11:15;10.10;86.60
28761;DHT22;15917;50.014;8.352;2023-02-28T11:13:44;9.50;87.00
28761;DHT22;15917;50.014;8.352;2023-02-28T11:16:12;9.40;88.90
28761;DHT22;15917;50.014;8.352;2023-02-28T11:18:50;9.30;88.00
28761;DHT22;15917;50.014;8.352;2023-02-28T11:21:31;9.40;88.40
28761;DHT22;15917;50.014;8.352;2023-02-28T11:24:05;9.80;87.10
28761;DHT22;15917;50.014;8.352;2023-02-28T11:26:44;10.10;85.70
28761;DHT22;15917;50.014;8.352;2023-02-28T11:29:22;10.40;84.90
28761;DHT22;15917;50.014;8.352;2023-02-28T11:34:34;10.90;83.60
28761;DHT22;15917;50.014;8.352;2023-02-28T11:37:01;10.80;81.70
28761;DHT22;15917;50.014;8.352;2023-02-28T11:39:31;10.40;81.10
28761;DHT22;15917;50.014;8.352;2023-02-28T11:42:11;10.40;82.30
28761;DHT22;15917;50.014;8.352;2023-02-28T11:45:11;10.60;82.20
28761;DHT22;15917;50.014;8.352;2023-02-28T11:48:04;10.10;80.10
28761;DHT22;15917;50.014;8.352;2023-02-28T11:51:03;9.70;82.60
28761;DHT22;15917;50.014;8.352;2023-02-28T11:58:51;9.70;82.80
28761;DHT22;15917;50.014;8.352;2023-02-28T12:06:57;9.40;82.60
28761;DHT22;15917;50.014;8.352;2023-02-28T12:10:00;9.50;83.80
28761;DHT22;15917;50.014;8.352;2023-02-28T12:12:45;9.80;82.90
28761;DHT22;15917;50.014;8.352;2023-02-28T12:18:10;9.90;80.70
28761;DHT22;15917;50.014;8.352;2023-02-28T12:26:31;9.60;85.20
28761;DHT22;15917;50.014;8.352;2023-02-28T12:32:13;10.00;81.90
28761;DHT22;15917;50.014;8.352;2023-02-28T12:34:46;9.70;81.80
28761;DHT22;15917;50.014;8.352;2023-02-28T12:37:21;9.70;82.50
28761;DHT22;15917;50.014;8.352;2023-02-28T12:39:51;9.80;81.10
28761;DHT22;15917;50.014;8.352;2023-02-28T12:42:30;9.70;81.50
28761;DHT22;15917;50.014;8.352;2023-02-28T12:45:00;9.70;82.30
28761;DHT22;15917;50.014;8.352;2023-02-28T12:47:26;9.80;80.50
28761;DHT22;15917;50.014;8.352;2023-02-28T12:52:37;10.00;81.60
28761;DHT22;15917;50.014;8.352;2023-02-28T12:55:12;10.10;80.00
28761;DHT22;15917;50.014;8.352;2023-02-28T12:57:48;10.20;79.30
28761;DHT22;15917;50.014;8.352;2023-02-28T13:00:22;10.30;80.60
28761;DHT22;15917;50.014;8.352;2023-02-28T13:03:21;10.30;80.20
28761;DHT22;15917;50.014;8.352;2023-02-28T13:06:28;10.60;79.60
28761;DHT22;15917;50.014;8.352;2023-02-28T13:09:08;10.70;78.50
28761;DHT22;15917;50.014;8.352;2023-02-28T13:11:46;10.60;79.10
28761;DHT22;15917;50.014;8.352;2023-02-28T13:14:30;10.40;79.40
28761;DHT22;15917;50.014;8.352;2023-02-28T13:19:38;10.60;78.90
28761;DHT22;15917;50.014;8.352;2023-02-28T13:22:04;10.60;78.70
28761;DHT22;15917;50.014;8.352;2023-02-28T13:29:34;10.20;79.60
28761;DHT22;15917;50.014;8.352;2023-02-28T13:34:38;10.70;79.20
28761;DHT22;15917;50.014;8.352;2023-02-28T13:39:53;10.80;80.00
28761;DHT22;15917;50.014;8.352;2023-02-28T13:42:32;10.70;79.00
28761;DHT22;15917;50.014;8.352;2023-02-28T13:47:52;10.40;79.40
28761;DHT22;15917;50.014;8.352;2023-02-28T14:01:28;9.60;81.10
28761;DHT22;15917;50.014;8.352;2023-02-28T14:06:54;9.60;81.80
28761;DHT22;15917;50.014;8.352;2023-02-28T14:15:02;9.50;81.70
28761;DHT22;15917;50.014;8.352;2023-02-28T14:17:28;9.40;82.20
28761;DHT22;15917;50.014;8.352;2023-02-28T14:19:53;9.20;83.40
28761;DHT22;15917;50.014;8.352;2023-02-28T14:25:44;9.40;83.50
28761;DHT22;15917;50.014;8.352;2023-02-28T14:28:42;9.50;82.50
28761;DHT22;15917;50.014;8.352;2023-02-28T14:31:09;9.70;82.80
28761;DHT22;15917;50.014;8.352;2023-02-28T14:36:30;9.90;81.50
28761;DHT22;15917;50.014;8.352;2023-02-28T14:39:05;9.90;81.80
28761;DHT22;15917;50.014;8.352;2023-02-28T14:41:36;9.90;82.10
28761;DHT22;15917;50.014;8.352;2023-02-28T14:44:20;9.90;82.20
28761;DHT22;15917;50.014;8.352;2023-02-28T14:46:49;9.70;82.70
28761;DHT22;15917;50.014;8.352;2023-02-28T14:52:12;9.80;83.60
28761;DHT22;15917;50.014;8.352;2023-02-28T14:54:40;9.50;82.40
28761;DHT22;15917;50.014;8.352;2023-02-28T14:57:21;9.60;83.20
28761;DHT22;15917;50.014;8.352;2023-02-28T15:02:33;9.50;83.80
28761;DHT22;15917;50.014;8.352;2023-02-28T15:05:47;9.60;83.20
28761;DHT22;15917;50.014;8.352;2023-02-28T15:07:48;9.60;83.10
28761;DHT22;15917;50.014;8.352;2023-02-28T15:10:25;9.60;83.80
28761;DHT22;15917;50.014;8.352;2023-02-28T15:12:58;9.40;84.10
28761;DHT22;15917;50.014;8.352;2023-02-28T15:21:13;9.20;85.20
28761;DHT22;15917;50.014;8.352;2023-02-28T15:23:45;9.10;85.50
28761;DHT22;15917;50.014;8.352;2023-02-28T15:26:21;9.00;86.10
28761;DHT22;15917;50.014;8.352;2023-02-28T15:28:51;8.90;85.50
28761;DHT22;15917;50.014;8.352;2023-02-28T15:31:29;8.90;86.50
28761;DHT22;15917;50.014;8.352;2023-02-28T15:33:58;8.80;86.50
28761;DHT22;15917;50.014;8.352;2023-02-28T15:36:30;8.70;87.00
28761;DHT22;15917;50.014;8.352;2023-02-28T15:38:59;8.50;86.90
28761;DHT22;15917;50.014;8.352;2023-02-28T15:41:37;8.20;87.60
28761;DHT22;15917;50.014;8.352;2023-02-28T15:44:26;8.00;89.60
28761;DHT22;15917;50.014;8.352;2023-02-28T15:47:01;8.50;99.90
28761;DHT22;15917;50.014;8.352;2023-02-28T15:49:28;10.00;99.90
28761;DHT22;15917;50.014;8.352;2023-02-28T15:51:58;10.40;99.90
28761;DHT22;15917;50.014;8.352;2023-02-28T15:54:29;9.70;93.40
28761;DHT22;15917;50.014;8.352;2023-02-28T15:56:57;9.00;93.40
28761;DHT22;15917;50.014;8.352;2023-02-28T15:59:28;8.50;94.30
28761;DHT22;15917;50.014;8.352;2023-02-28T16:02:16;7.90;95.50
28761;DHT22;15917;50.014;8.352;2023-02-28T16:07:33;7.30;96.90
28761;DHT22;15917;50.014;8.352;2023-02-28T16:10:00;7.10;97.70
28761;DHT22;15917;50.014;8.352;2023-02-28T16:12:29;7.00;97.80
28761;DHT22;15917;50.014;8.352;2023-02-28T16:15:01;6.80;97.90
28761;DHT22;15917;50.014;8.352;2023-02-28T16:17:37;6.80;98.40
28761;DHT22;15917;50.014;8.352;2023-02-28T16:20:14;6.70;98.50
28761;DHT22;15917;50.014;8.352;2023-02-28T16:22:40;6.60;99.10
28761;DHT22;15917;50.014;8.352;2023-02-28T16:25:12;6.60;99.10
28761;DHT22;15917;50.014;8.352;2023-02-28T16:27:38;6.60;99.60
28761;DHT22;15917;50.014;8.352;2023-02-28T16:30:05;6.50;99.60
28761;DHT22;15917;50.014;8.352;2023-02-28T16:32:32;6.50;99.70
28761;DHT22;15917;50.014;8.352;2023-02-28T16:35:00;6.40;99.80
28761;DHT22;15917;50.014;8.352;2023-02-28T16:37:27;6.30;99.90
28761;DHT22;15917;50.014;8.352;2023-02-28T16:39:53;6.20;99.90
28761;DHT22;15917;50.014;8.352;2023-02-28T16:42:25;6.20;99.90
28761;DHT22;15917;50.014;8.352;2023-02-28T16:44:52;6.10;99.90
28761;DHT22;15917;50.014;8.352;2023-02-28T16:47:18;6.00;99.90
28761;DHT22;15917;50.014;8.352;2023-02-28T16:49:43;6.00;99.90
28761;DHT22;15917;50.014;8.352;2023-02-28T16:52:09;5.90;99.90
28761;DHT22;15917;50.014;8.352;2023-02-28T16:54:36;5.80;99.90
28761;DHT22;15917;50.014;8.352;2023-02-28T16:57:01;5.70;99.90
28761;DHT22;15917;50.014;8.352;2023-02-28T16:59:28;5.70;99.90
28761;DHT22;15917;50.014;8.352;2023-02-28T17:01:55;5.70;99.90
28761;DHT22;15917;50.014;8.352;2023-02-28T17:04:24;5.70;99.90
28761;DHT22;15917;50.014;8.352;2023-02-28T17:06:49;5.60;99.90
28761;DHT22;15917;50.014;8.352;2023-02-28T17:09:18;5.60;99.90
28761;DHT22;15917;50.014;8.352;2023-02-28T17:11:44;5.50;99.90
28761;DHT22;15917;50.014;8.352;2023-02-28T17:14:10;5.40;99.90
28761;DHT22;15917;50.014;8.352;2023-02-28T17:16:37;5.40;99.90
28761;DHT22;15917;50.014;8.352;2023-02-28T17:19:12;5.40;99.90
28761;DHT22;15917;50.014;8.352;2023-02-28T17:21:38;5.30;99.90
28761;DHT22;15917;50.014;8.352;2023-02-28T17:24:04;5.20;99.90
28761;DHT22;15917;50.014;8.352;2023-02-28T17:26:30;5.20;99.90
28761;DHT22;15917;50.014;8.352;2023-02-28T17:28:57;5.10;99.90
28761;DHT22;15917;50.014;8.352;2023-02-28T17:31:24;5.00;99.90
28761;DHT22;15917;50.014;8.352;2023-02-28T17:33:50;5.00;99.90
28761;DHT22;15917;50.014;8.352;2023-02-28T17:36:20;5.10;99.90
28761;DHT22;15917;50.014;8.352;2023-02-28T17:38:50;5.00;99.90
28761;DHT22;15917;50.014;8.352;2023-02-28T17:41:16;5.00;99.90
28761;DHT22;15917;50.014;8.352;2023-02-28T17:43:41;4.90;99.90
28761;DHT22;15917;50.014;8.352;2023-02-28T17:46:21;4.90;99.90
28761;DHT22;15917;50.014;8.352;2023-02-28T17:48:51;4.90;99.90
28761;DHT22;15917;50.014;8.352;2023-02-28T17:51:18;4.80;99.90
28761;DHT22;15917;50.014;8.352;2023-02-28T17:53:45;4.80;99.90
28761;DHT22;15917;50.014;8.352;2023-02-28T17:56:17;4.70;99.90
28761;DHT22;15917;50.014;8.352;2023-02-28T17:58:44;4.70;99.90
28761;DHT22;15917;50.014;8.352;2023-02-28T18:01:10;4.60;99.90
28761;DHT22;15917;50.014;8.352;2023-02-28T18:03:37;4.60;99.90
28761;DHT22;15917;50.014;8.352;2023-02-28T18:06:03;4.60;99.90
28761;DHT22;15917;50.014;8.352;2023-02-28T18:08:29;4.60;99.90
28761;DHT22;15917;50.014;8.352;2023-02-28T18:10:56;4.60;99.90
28761;DHT22;15917;50.014;8.352;2023-02-28T18:13:21;4.60;99.90
28761;DHT22;15917;50.014;8.352;2023-02-28T18:15:47;4.50;99.90
28761;DHT22;15917;50.014;8.352;2023-02-28T18:18:13;4.40;99.90
28761;DHT22;15917;50.014;8.352;2023-02-28T18:20:39;4.40;99.90
28761;DHT22;15917;50.014;8.352;2023-02-28T18:23:05;4.40;99.90
28761;DHT22;15917;50.014;8.352;2023-02-28T18:25:31;4.40;99.90
28761;DHT22;15917;50.014;8.352;2023-02-28T18:27:57;4.30;99.90